sensor_id;sensor_type;location;lat;lon;timestamp;P1;durP1;ratioP1;P2;durP2;ratioP2
65658;SDS011;60181;53.258;6.932;2023-02-28T00:02:04;4.40;;;2.00;;
65658;SDS011;60181;53.258;6.932;2023-02-28T00:06:08;8.10;;;1.70;;
65658;SDS011;60181;53.258;6.932;2023-02-28T00:10:12;8.10;;;1.70;;
65658;SDS011;60181;53.258;6.932;2023-02-28T00:14:15;4.60;;;1.90;;
65658;SDS011;60181;53.258;6.932;2023-02-28T00:18:19;4.60;;;1.90;;
65658;SDS011;60181;53.258;6.932;2023-02-28T00:22:23;4.30;;;1.80;;
65658;SDS011;60181;53.258;6.932;2023-02-28T00:26:27;4.30;;;1.80;;
65658;SDS011;60181;53.258;6.932;2023-02-28T00:30:31;4.30;;;1.80;;
65658;SDS011;60181;53.258;6.932;2023-02-28T00:34:35;6.30;;;2.00;;
65658;SDS011;60181;53.258;6.932;2023-02-28T00:38:40;6.30;;;2.00;;
65658;SDS011;60181;53.258;6.932;2023-02-28T00:42:43;4.20;;;1.80;;
65658;SDS011;60181;53.258;6.932;2023-02-28T00:46:47;4.20;;;1.80;;
65658;SDS011;60181;53.258;6.932;2023-02-28T00:50:51;4.20;;;1.80;;
65658;SDS011;60181;53.258;6.932;2023-02-28T00:54:55;5.50;;;2.20;;
65658;SDS011;60181;53.258;6.932;2023-02-28T00:58:59;5.50;;;2.20;;
65658;SDS011;60181;53.258;6.932;2023-02-28T01:03:03;7.10;;;2.10;;
65658;SDS011;60181;53.258;6.932;2023-02-28T01:07:07;7.10;;;2.10;;
65658;SDS011;60181;53.258;6.932;2023-02-28T01:11:12;7.10;;;2.10;;
65658;SDS011;60181;53.258;6.932;2023-02-28T01:15:16;5.00;;;1.80;;
65658;SDS011;60181;53.258;6.932;2023-02-28T01:19:19;5.00;;;1.80;;
65658;SDS011;60181;53.258;6.932;2023-02-28T01:23:23;4.20;;;1.80;;
65658;SDS011;60181;53.258;6.932;2023-02-28T01:27:27;4.20;;;1.80;;
65658;SDS011;60181;53.258;6.932;2023-02-28T01:31:31;4.20;;;1.80;;
65658;SDS011;60181;53.258;6.932;2023-02-28T01:35:35;5.50;;;1.80;;
65658;SDS011;60181;53.258;6.932;2023-02-28T01:39:39;5.50;;;1.80;;
65658;SDS011;60181;53.258;6.932;2023-02-28T01:47:48;4.70;;;1.70;;
65658;SDS011;60181;53.258;6.932;2023-02-28T01:51:52;4.70;;;1.70;;
65658;SDS011;60181;53.258;6.932;2023-02-28T01:55:55;3.90;;;1.70;;
65658;SDS011;60181;53.258;6.932;2023-02-28T02:00:00;3.90;;;1.70;;
65658;SDS011;60181;53.258;6.932;2023-02-28T02:04:03;8.80;;;1.70;;
65658;SDS011;60181;53.258;6.932;2023-02-28T02:08:09;8.80;;;1.70;;
65658;SDS011;60181;53.258;6.932;2023-02-28T02:12:36;8.80;;;1.70;;
65658;SDS011;60181;53.258;6.932;2023-02-28T02:16:20;4.50;;;1.80;;
65658;SDS011;60181;53.258;6.932;2023-02-28T02:28:34;4.00;;;1.80;;
65658;SDS011;60181;53.258;6.932;2023-02-28T02:36:37;5.40;;;1.70;;
65658;SDS011;60181;53.258;6.932;2023-02-28T02:44:45;3.60;;;1.70;;
65658;SDS011;60181;53.258;6.932;2023-02-28T02:48:47;3.60;;;1.70;;
65658;SDS011;60181;53.258;6.932;2023-02-28T02:52:53;5.40;;;2.00;;
65658;SDS011;60181;53.258;6.932;2023-02-28T02:56:59;5.40;;;2.00;;
65658;SDS011;60181;53.258;6.932;2023-02-28T03:01:00;5.40;;;2.00;;
65658;SDS011;60181;53.258;6.932;2023-02-28T03:05:22;4.10;;;1.70;;
65658;SDS011;60181;53.258;6.932;2023-02-28T03:09:07;4.10;;;1.70;;
65658;SDS011;60181;53.258;6.932;2023-02-28T03:13:15;4.90;;;2.00;;
65658;SDS011;60181;53.258;6.932;2023-02-28T03:17:27;4.90;;;2.00;;
65658;SDS011;60181;53.258;6.932;2023-02-28T03:25:31;6.10;;;2.00;;
65658;SDS011;60181;53.258;6.932;2023-02-28T03:29:34;6.10;;;2.00;;
65658;SDS011;60181;53.258;6.932;2023-02-28T03:37:36;5.00;;;1.80;;
65658;SDS011;60181;53.258;6.932;2023-02-28T03:41:43;5.00;;;1.80;;
65658;SDS011;60181;53.258;6.932;2023-02-28T03:45:43;4.50;;;1.60;;
65658;SDS011;60181;53.258;6.932;2023-02-28T03:49:52;4.50;;;1.60;;
65658;SDS011;60181;53.258;6.932;2023-02-28T03:53:52;4.30;;;1.80;;
65658;SDS011;60181;53.258;6.932;2023-02-28T04:01:59;4.30;;;1.80;;
65658;SDS011;60181;53.258;6.932;2023-02-28T04:06:04;10.10;;;1.90;;
65658;SDS011;60181;53.258;6.932;2023-02-28T04:10:08;10.10;;;1.90;;
65658;SDS011;60181;53.258;6.932;2023-02-28T04:14:11;9.10;;;1.70;;
65658;SDS011;60181;53.258;6.932;2023-02-28T04:18:15;9.10;;;1.70;;
65658;SDS011;60181;53.258;6.932;2023-02-28T04:22:19;9.10;;;1.70;;
65658;SDS011;60181;53.258;6.932;2023-02-28T04:26:23;4.80;;;1.90;;
65658;SDS011;60181;53.258;6.932;2023-02-28T04:30:27;4.80;;;1.90;;
65658;SDS011;60181;53.258;6.932;2023-02-28T04:34:31;7.80;;;1.80;;
65658;SDS011;60181;53.258;6.932;2023-02-28T04:38:36;7.80;;;1.80;;
65658;SDS011;60181;53.258;6.932;2023-02-28T04:42:39;4.50;;;2.10;;
65658;SDS011;60181;53.258;6.932;2023-02-28T04:46:43;4.50;;;2.10;;
65658;SDS011;60181;53.258;6.932;2023-02-28T04:50:47;4.50;;;2.10;;
65658;SDS011;60181;53.258;6.932;2023-02-28T04:54:51;4.50;;;2.00;;
65658;SDS011;60181;53.258;6.932;2023-02-28T04:58:55;4.50;;;2.00;;
65658;SDS011;60181;53.258;6.932;2023-02-28T05:02:59;3.70;;;1.80;;
65658;SDS011;60181;53.258;6.932;2023-02-28T05:07:03;3.70;;;1.80;;
65658;SDS011;60181;53.258;6.932;2023-02-28T05:11:12;3.70;;;1.80;;
65658;SDS011;60181;53.258;6.932;2023-02-28T05:15:12;5.60;;;1.90;;
65658;SDS011;60181;53.258;6.932;2023-02-28T05:19:15;5.60;;;1.90;;
65658;SDS011;60181;53.258;6.932;2023-02-28T05:23:19;3.90;;;1.90;;
65658;SDS011;60181;53.258;6.932;2023-02-28T05:27:23;3.90;;;1.90;;
65658;SDS011;60181;53.258;6.932;2023-02-28T05:31:27;3.90;;;1.90;;
65658;SDS011;60181;53.258;6.932;2023-02-28T05:35:31;3.60;;;1.80;;
65658;SDS011;60181;53.258;6.932;2023-02-28T05:39:35;3.60;;;1.80;;
65658;SDS011;60181;53.258;6.932;2023-02-28T05:43:39;3.70;;;1.90;;
65658;SDS011;60181;53.258;6.932;2023-02-28T05:47:43;3.70;;;1.90;;
65658;SDS011;60181;53.258;6.932;2023-02-28T05:51:47;3.70;;;1.90;;
65658;SDS011;60181;53.258;6.932;2023-02-28T05:55:51;3.40;;;1.90;;
65658;SDS011;60181;53.258;6.932;2023-02-28T05:59:55;3.40;;;1.90;;
65658;SDS011;60181;53.258;6.932;2023-02-28T06:03:59;4.30;;;2.00;;
65658;SDS011;60181;53.258;6.932;2023-02-28T06:08:03;4.30;;;2.00;;
65658;SDS011;60181;53.258;6.932;2023-02-28T06:12:07;4.30;;;2.00;;
65658;SDS011;60181;53.258;6.932;2023-02-28T06:16:11;3.40;;;1.70;;
65658;SDS011;60181;53.258;6.932;2023-02-28T06:20:15;3.40;;;1.70;;
65658;SDS011;60181;53.258;6.932;2023-02-28T06:24:19;3.30;;;1.70;;
65658;SDS011;60181;53.258;6.932;2023-02-28T06:28:24;3.30;;;1.70;;
65658;SDS011;60181;53.258;6.932;2023-02-28T06:32:27;4.70;;;1.80;;
65658;SDS011;60181;53.258;6.932;2023-02-28T06:36:31;4.70;;;1.80;;
65658;SDS011;60181;53.258;6.932;2023-02-28T06:40:35;4.70;;;1.80;;
65658;SDS011;60181;53.258;6.932;2023-02-28T06:44:39;2.80;;;1.70;;
65658;SDS011;60181;53.258;6.932;2023-02-28T06:48:43;2.80;;;1.70;;
65658;SDS011;60181;53.258;6.932;2023-02-28T06:52:47;3.10;;;1.50;;
65658;SDS011;60181;53.258;6.932;2023-02-28T06:56:51;3.10;;;1.50;;
65658;SDS011;60181;53.258;6.932;2023-02-28T07:00:55;3.10;;;1.50;;
65658;SDS011;60181;53.258;6.932;2023-02-28T07:04:59;3.50;;;1.80;;
65658;SDS011;60181;53.258;6.932;2023-02-28T07:09:03;3.50;;;1.80;;
65658;SDS011;60181;53.258;6.932;2023-02-28T07:13:07;3.70;;;1.70;;
65658;SDS011;60181;53.258;6.932;2023-02-28T07:17:11;3.70;;;1.70;;
65658;SDS011;60181;53.258;6.932;2023-02-28T07:21:15;3.70;;;1.70;;
65658;SDS011;60181;53.258;6.932;2023-02-28T07:25:19;3.20;;;1.60;;
65658;SDS011;60181;53.258;6.932;2023-02-28T07:29:23;3.20;;;1.60;;
65658;SDS011;60181;53.258;6.932;2023-02-28T07:33:27;2.90;;;1.60;;
65658;SDS011;60181;53.258;6.932;2023-02-28T07:37:31;2.90;;;1.60;;
65658;SDS011;60181;53.258;6.932;2023-02-28T07:41:35;2.90;;;1.60;;
65658;SDS011;60181;53.258;6.932;2023-02-28T07:45:39;3.40;;;1.80;;
65658;SDS011;60181;53.258;6.932;2023-02-28T07:49:44;3.40;;;1.80;;
65658;SDS011;60181;53.258;6.932;2023-02-28T07:53:47;3.70;;;1.80;;
65658;SDS011;60181;53.258;6.932;2023-02-28T07:57:51;3.70;;;1.80;;
65658;SDS011;60181;53.258;6.932;2023-02-28T08:01:56;3.70;;;1.80;;
65658;SDS011;60181;53.258;6.932;2023-02-28T08:05:59;3.70;;;1.60;;
65658;SDS011;60181;53.258;6.932;2023-02-28T08:10:03;3.70;;;1.60;;
65658;SDS011;60181;53.258;6.932;2023-02-28T08:14:07;6.20;;;1.70;;
65658;SDS011;60181;53.258;6.932;2023-02-28T08:18:11;6.20;;;1.70;;
65658;SDS011;60181;53.258;6.932;2023-02-28T08:22:15;6.20;;;1.70;;
65658;SDS011;60181;53.258;6.932;2023-02-28T08:26:19;7.70;;;1.70;;
65658;SDS011;60181;53.258;6.932;2023-02-28T08:30:23;7.70;;;1.70;;
65658;SDS011;60181;53.258;6.932;2023-02-28T08:34:27;7.20;;;1.70;;
65658;SDS011;60181;53.258;6.932;2023-02-28T08:38:31;7.20;;;1.70;;
65658;SDS011;60181;53.258;6.932;2023-02-28T08:42:35;3.80;;;1.60;;
65658;SDS011;60181;53.258;6.932;2023-02-28T08:46:39;3.80;;;1.60;;
65658;SDS011;60181;53.258;6.932;2023-02-28T08:50:43;3.80;;;1.60;;
65658;SDS011;60181;53.258;6.932;2023-02-28T08:54:47;3.40;;;1.70;;
65658;SDS011;60181;53.258;6.932;2023-02-28T08:58:51;3.40;;;1.70;;
65658;SDS011;60181;53.258;6.932;2023-02-28T09:02:55;5.30;;;1.80;;
65658;SDS011;60181;53.258;6.932;2023-02-28T09:06:59;5.30;;;1.80;;
65658;SDS011;60181;53.258;6.932;2023-02-28T09:11:03;5.30;;;1.80;;
65658;SDS011;60181;53.258;6.932;2023-02-28T09:15:07;4.00;;;1.60;;
65658;SDS011;60181;53.258;6.932;2023-02-28T09:19:11;4.00;;;1.60;;
65658;SDS011;60181;53.258;6.932;2023-02-28T09:23:15;4.20;;;1.80;;
65658;SDS011;60181;53.258;6.932;2023-02-28T09:27:19;4.20;;;1.80;;
65658;SDS011;60181;53.258;6.932;2023-02-28T09:31:33;4.20;;;1.80;;
65658;SDS011;60181;53.258;6.932;2023-02-28T09:35:27;2.70;;;1.70;;
65658;SDS011;60181;53.258;6.932;2023-02-28T09:39:31;2.70;;;1.70;;
65658;SDS011;60181;53.258;6.932;2023-02-28T09:43:35;3.60;;;1.70;;
65658;SDS011;60181;53.258;6.932;2023-02-28T09:47:40;3.60;;;1.70;;
65658;SDS011;60181;53.258;6.932;2023-02-28T09:55:59;3.50;;;1.80;;
65658;SDS011;60181;53.258;6.932;2023-02-28T09:59:57;3.50;;;1.80;;
65658;SDS011;60181;53.258;6.932;2023-02-28T10:03:59;3.50;;;1.70;;
65658;SDS011;60181;53.258;6.932;2023-02-28T10:08:01;3.50;;;1.70;;
65658;SDS011;60181;53.258;6.932;2023-02-28T10:12:03;3.50;;;1.70;;
65658;SDS011;60181;53.258;6.932;2023-02-28T10:16:14;4.60;;;2.40;;
65658;SDS011;60181;53.258;6.932;2023-02-28T10:20:11;4.60;;;2.40;;
65658;SDS011;60181;53.258;6.932;2023-02-28T10:24:25;4.00;;;2.40;;
65658;SDS011;60181;53.258;6.932;2023-02-28T10:28:19;4.00;;;2.40;;
65658;SDS011;60181;53.258;6.932;2023-02-28T10:32:24;4.00;;;2.40;;
65658;SDS011;60181;53.258;6.932;2023-02-28T10:36:27;4.70;;;2.30;;
65658;SDS011;60181;53.258;6.932;2023-02-28T10:40:33;4.70;;;2.30;;
65658;SDS011;60181;53.258;6.932;2023-02-28T10:44:35;4.20;;;2.40;;
65658;SDS011;60181;53.258;6.932;2023-02-28T10:48:45;4.20;;;2.40;;
65658;SDS011;60181;53.258;6.932;2023-02-28T10:52:43;5.30;;;2.50;;
65658;SDS011;60181;53.258;6.932;2023-02-28T10:57:04;5.30;;;2.50;;
65658;SDS011;60181;53.258;6.932;2023-02-28T11:00:51;5.30;;;2.50;;
65658;SDS011;60181;53.258;6.932;2023-02-28T11:04:55;5.30;;;2.40;;
65658;SDS011;60181;53.258;6.932;2023-02-28T11:08:59;5.30;;;2.40;;
65658;SDS011;60181;53.258;6.932;2023-02-28T11:13:03;5.30;;;2.60;;
65658;SDS011;60181;53.258;6.932;2023-02-28T11:17:13;5.30;;;2.60;;
65658;SDS011;60181;53.258;6.932;2023-02-28T11:21:15;5.30;;;2.60;;
65658;SDS011;60181;53.258;6.932;2023-02-28T11:25:25;6.20;;;2.80;;
65658;SDS011;60181;53.258;6.932;2023-02-28T11:29:23;6.20;;;2.80;;
65658;SDS011;60181;53.258;6.932;2023-02-28T11:33:27;6.60;;;2.50;;
65658;SDS011;60181;53.258;6.932;2023-02-28T11:37:27;6.60;;;2.50;;
65658;SDS011;60181;53.258;6.932;2023-02-28T11:45:45;5.20;;;2.60;;
65658;SDS011;60181;53.258;6.932;2023-02-28T11:49:56;5.20;;;2.60;;
65658;SDS011;60181;53.258;6.932;2023-02-28T11:53:50;4.80;;;2.50;;
65658;SDS011;60181;53.258;6.932;2023-02-28T12:06:02;4.40;;;2.40;;
65658;SDS011;60181;53.258;6.932;2023-02-28T12:14:21;5.40;;;2.30;;
65658;SDS011;60181;53.258;6.932;2023-02-28T12:22:27;5.40;;;2.30;;
65658;SDS011;60181;53.258;6.932;2023-02-28T12:26:29;5.00;;;2.70;;
65658;SDS011;60181;53.258;6.932;2023-02-28T12:30:22;5.00;;;2.70;;
65658;SDS011;60181;53.258;6.932;2023-02-28T12:34:25;5.70;;;3.00;;
65658;SDS011;60181;53.258;6.932;2023-02-28T12:38:33;5.70;;;3.00;;
65658;SDS011;60181;53.258;6.932;2023-02-28T12:42:32;5.70;;;3.00;;
65658;SDS011;60181;53.258;6.932;2023-02-28T12:46:39;7.10;;;3.20;;
65658;SDS011;60181;53.258;6.932;2023-02-28T12:50:38;7.10;;;3.20;;
65658;SDS011;60181;53.258;6.932;2023-02-28T12:54:56;5.40;;;2.80;;
65658;SDS011;60181;53.258;6.932;2023-02-28T12:58:47;5.40;;;2.80;;
65658;SDS011;60181;53.258;6.932;2023-02-28T13:10:58;5.30;;;2.70;;
65658;SDS011;60181;53.258;6.932;2023-02-28T13:19:10;10.00;;;3.00;;
65658;SDS011;60181;53.258;6.932;2023-02-28T13:23:35;4.90;;;2.90;;
65658;SDS011;60181;53.258;6.932;2023-02-28T13:31:19;4.90;;;2.90;;
65658;SDS011;60181;53.258;6.932;2023-02-28T13:35:35;6.90;;;2.90;;
65658;SDS011;60181;53.258;6.932;2023-02-28T13:43:58;5.60;;;2.90;;
65658;SDS011;60181;53.258;6.932;2023-02-28T13:51:40;5.60;;;2.90;;
65658;SDS011;60181;53.258;6.932;2023-02-28T13:55:46;4.80;;;2.70;;
65658;SDS011;60181;53.258;6.932;2023-02-28T13:59:52;4.80;;;2.70;;
65658;SDS011;60181;53.258;6.932;2023-02-28T14:04:03;7.40;;;2.90;;
65658;SDS011;60181;53.258;6.932;2023-02-28T14:07:56;7.40;;;2.90;;
65658;SDS011;60181;53.258;6.932;2023-02-28T14:16:03;5.20;;;2.90;;
65658;SDS011;60181;53.258;6.932;2023-02-28T14:20:13;5.20;;;2.90;;
65658;SDS011;60181;53.258;6.932;2023-02-28T14:36:38;5.70;;;3.00;;
65658;SDS011;60181;53.258;6.932;2023-02-28T14:40:30;5.70;;;3.00;;
65658;SDS011;60181;53.258;6.932;2023-02-28T14:44:30;4.50;;;2.50;;
65658;SDS011;60181;53.258;6.932;2023-02-28T14:48:34;4.50;;;2.50;;
65658;SDS011;60181;53.258;6.932;2023-02-28T14:52:38;4.50;;;2.50;;
65658;SDS011;60181;53.258;6.932;2023-02-28T14:56:42;5.10;;;2.50;;
65658;SDS011;60181;53.258;6.932;2023-02-28T15:00:47;5.10;;;2.50;;
65658;SDS011;60181;53.258;6.932;2023-02-28T15:04:54;5.10;;;2.70;;
65658;SDS011;60181;53.258;6.932;2023-02-28T15:09:10;5.10;;;2.70;;
65658;SDS011;60181;53.258;6.932;2023-02-28T15:12:59;5.10;;;2.70;;
65658;SDS011;60181;53.258;6.932;2023-02-28T15:17:03;4.40;;;2.60;;
65658;SDS011;60181;53.258;6.932;2023-02-28T15:21:07;4.40;;;2.60;;
65658;SDS011;60181;53.258;6.932;2023-02-28T15:25:10;5.30;;;2.80;;
65658;SDS011;60181;53.258;6.932;2023-02-28T15:29:16;5.30;;;2.80;;
65658;SDS011;60181;53.258;6.932;2023-02-28T15:33:20;5.00;;;2.80;;
65658;SDS011;60181;53.258;6.932;2023-02-28T15:41:28;5.00;;;2.80;;
65658;SDS011;60181;53.258;6.932;2023-02-28T15:45:35;5.50;;;2.70;;
65658;SDS011;60181;53.258;6.932;2023-02-28T15:49:39;5.50;;;2.70;;
65658;SDS011;60181;53.258;6.932;2023-02-28T15:57:42;6.40;;;2.70;;
65658;SDS011;60181;53.258;6.932;2023-02-28T16:01:46;6.40;;;2.70;;
65658;SDS011;60181;53.258;6.932;2023-02-28T16:09:54;4.50;;;2.60;;
65658;SDS011;60181;53.258;6.932;2023-02-28T16:13:58;4.10;;;2.40;;
65658;SDS011;60181;53.258;6.932;2023-02-28T16:18:02;4.10;;;2.40;;
65658;SDS011;60181;53.258;6.932;2023-02-28T16:22:07;4.10;;;2.40;;
65658;SDS011;60181;53.258;6.932;2023-02-28T16:26:21;4.40;;;2.40;;
65658;SDS011;60181;53.258;6.932;2023-02-28T16:30:18;4.40;;;2.40;;
65658;SDS011;60181;53.258;6.932;2023-02-28T16:34:18;4.90;;;2.90;;
65658;SDS011;60181;53.258;6.932;2023-02-28T16:38:22;4.90;;;2.90;;
65658;SDS011;60181;53.258;6.932;2023-02-28T16:42:27;4.90;;;2.90;;
65658;SDS011;60181;53.258;6.932;2023-02-28T16:46:32;5.30;;;2.50;;
65658;SDS011;60181;53.258;6.932;2023-02-28T16:50:34;5.30;;;2.50;;
65658;SDS011;60181;53.258;6.932;2023-02-28T16:54:38;3.90;;;2.30;;
65658;SDS011;60181;53.258;6.932;2023-02-28T16:58:42;3.90;;;2.30;;
65658;SDS011;60181;53.258;6.932;2023-02-28T17:02:46;3.90;;;2.30;;
65658;SDS011;60181;53.258;6.932;2023-02-28T17:06:50;4.90;;;2.50;;
65658;SDS011;60181;53.258;6.932;2023-02-28T17:10:54;4.90;;;2.50;;
65658;SDS011;60181;53.258;6.932;2023-02-28T17:14:58;4.70;;;2.30;;
65658;SDS011;60181;53.258;6.932;2023-02-28T17:19:03;4.70;;;2.30;;
65658;SDS011;60181;53.258;6.932;2023-02-28T17:23:06;4.70;;;2.30;;
65658;SDS011;60181;53.258;6.932;2023-02-28T17:27:13;6.10;;;2.50;;
65658;SDS011;60181;53.258;6.932;2023-02-28T17:31:14;6.10;;;2.50;;
65658;SDS011;60181;53.258;6.932;2023-02-28T17:35:18;4.80;;;2.40;;
65658;SDS011;60181;53.258;6.932;2023-02-28T17:39:22;4.80;;;2.40;;
65658;SDS011;60181;53.258;6.932;2023-02-28T17:43:26;4.60;;;2.30;;
65658;SDS011;60181;53.258;6.932;2023-02-28T17:47:30;4.60;;;2.30;;
65658;SDS011;60181;53.258;6.932;2023-02-28T17:51:34;4.60;;;2.30;;
65658;SDS011;60181;53.258;6.932;2023-02-28T17:55:38;4.10;;;2.20;;
65658;SDS011;60181;53.258;6.932;2023-02-28T17:59:42;4.10;;;2.20;;
65658;SDS011;60181;53.258;6.932;2023-02-28T18:03:46;6.80;;;2.50;;
65658;SDS011;60181;53.258;6.932;2023-02-28T18:07:50;6.80;;;2.50;;
65658;SDS011;60181;53.258;6.932;2023-02-28T18:11:54;6.80;;;2.50;;
65658;SDS011;60181;53.258;6.932;2023-02-28T18:15:58;3.60;;;2.10;;
65658;SDS011;60181;53.258;6.932;2023-02-28T18:20:02;3.60;;;2.10;;
65658;SDS011;60181;53.258;6.932;2023-02-28T18:24:06;4.10;;;2.30;;
65658;SDS011;60181;53.258;6.932;2023-02-28T18:28:10;4.10;;;2.30;;
65658;SDS011;60181;53.258;6.932;2023-02-28T18:32:14;4.10;;;2.30;;
65658;SDS011;60181;53.258;6.932;2023-02-28T18:36:19;4.20;;;2.10;;
65658;SDS011;60181;53.258;6.932;2023-02-28T18:40:22;4.20;;;2.10;;
65658;SDS011;60181;53.258;6.932;2023-02-28T18:44:26;4.80;;;2.20;;
65658;SDS011;60181;53.258;6.932;2023-02-28T18:48:30;4.80;;;2.20;;
65658;SDS011;60181;53.258;6.932;2023-02-28T18:52:34;4.80;;;2.20;;
65658;SDS011;60181;53.258;6.932;2023-02-28T18:56:38;4.10;;;2.10;;
65658;SDS011;60181;53.258;6.932;2023-02-28T19:00:46;4.10;;;2.10;;
65658;SDS011;60181;53.258;6.932;2023-02-28T19:04:46;5.10;;;2.40;;
65658;SDS011;60181;53.258;6.932;2023-02-28T19:08:56;5.10;;;2.40;;
65658;SDS011;60181;53.258;6.932;2023-02-28T19:12:54;5.10;;;2.40;;
65658;SDS011;60181;53.258;6.932;2023-02-28T19:16:58;6.00;;;2.30;;
65658;SDS011;60181;53.258;6.932;2023-02-28T19:21:02;6.00;;;2.30;;
65658;SDS011;60181;53.258;6.932;2023-02-28T19:25:06;3.80;;;2.10;;
65658;SDS011;60181;53.258;6.932;2023-02-28T19:29:10;3.80;;;2.10;;
65658;SDS011;60181;53.258;6.932;2023-02-28T19:33:14;4.70;;;2.20;;
65658;SDS011;60181;53.258;6.932;2023-02-28T19:37:18;4.70;;;2.20;;
65658;SDS011;60181;53.258;6.932;2023-02-28T19:45:26;4.00;;;2.10;;
65658;SDS011;60181;53.258;6.932;2023-02-28T19:49:30;4.00;;;2.10;;
65658;SDS011;60181;53.258;6.932;2023-02-28T19:53:34;4.20;;;2.00;;
65658;SDS011;60181;53.258;6.932;2023-02-28T19:57:38;4.20;;;2.00;;
65658;SDS011;60181;53.258;6.932;2023-02-28T20:01:42;4.20;;;2.00;;
65658;SDS011;60181;53.258;6.932;2023-02-28T20:05:46;4.20;;;2.00;;
65658;SDS011;60181;53.258;6.932;2023-02-28T20:09:50;4.20;;;2.00;;
65658;SDS011;60181;53.258;6.932;2023-02-28T20:13:54;3.90;;;2.30;;
65658;SDS011;60181;53.258;6.932;2023-02-28T20:17:58;3.90;;;2.30;;
65658;SDS011;60181;53.258;6.932;2023-02-28T20:22:02;3.90;;;2.30;;
65658;SDS011;60181;53.258;6.932;2023-02-28T20:26:06;4.10;;;2.00;;
65658;SDS011;60181;53.258;6.932;2023-02-28T20:30:10;4.10;;;2.00;;
65658;SDS011;60181;53.258;6.932;2023-02-28T20:34:14;4.20;;;2.20;;
65658;SDS011;60181;53.258;6.932;2023-02-28T20:38:18;4.20;;;2.20;;
65658;SDS011;60181;53.258;6.932;2023-02-28T20:42:22;4.20;;;2.20;;
65658;SDS011;60181;53.258;6.932;2023-02-28T20:46:26;3.90;;;2.10;;
65658;SDS011;60181;53.258;6.932;2023-02-28T20:50:30;3.90;;;2.10;;
65658;SDS011;60181;53.258;6.932;2023-02-28T20:54:34;4.80;;;2.20;;
65658;SDS011;60181;53.258;6.932;2023-02-28T20:58:38;4.80;;;2.20;;
65658;SDS011;60181;53.258;6.932;2023-02-28T21:02:42;4.80;;;2.20;;
65658;SDS011;60181;53.258;6.932;2023-02-28T21:06:46;3.80;;;2.10;;
65658;SDS011;60181;53.258;6.932;2023-02-28T21:10:50;3.80;;;2.10;;
65658;SDS011;60181;53.258;6.932;2023-02-28T21:14:54;3.30;;;2.00;;
65658;SDS011;60181;53.258;6.932;2023-02-28T21:18:58;3.30;;;2.00;;
65658;SDS011;60181;53.258;6.932;2023-02-28T21:23:02;3.30;;;2.00;;
65658;SDS011;60181;53.258;6.932;2023-02-28T21:27:06;4.40;;;2.30;;
65658;SDS011;60181;53.258;6.932;2023-02-28T21:31:13;4.40;;;2.30;;
65658;SDS011;60181;53.258;6.932;2023-02-28T21:35:14;3.70;;;2.00;;
65658;SDS011;60181;53.258;6.932;2023-02-28T21:39:19;3.70;;;2.00;;
65658;SDS011;60181;53.258;6.932;2023-02-28T21:43:22;4.10;;;2.20;;
65658;SDS011;60181;53.258;6.932;2023-02-28T21:47:28;4.10;;;2.20;;
65658;SDS011;60181;53.258;6.932;2023-02-28T21:51:30;4.10;;;2.20;;
65658;SDS011;60181;53.258;6.932;2023-02-28T21:55:34;3.80;;;2.10;;
65658;SDS011;60181;53.258;6.932;2023-02-28T21:59:38;3.80;;;2.10;;
65658;SDS011;60181;53.258;6.932;2023-02-28T22:03:42;3.80;;;2.10;;
65658;SDS011;60181;53.258;6.932;2023-02-28T22:07:46;3.80;;;2.10;;
65658;SDS011;60181;53.258;6.932;2023-02-28T22:11:50;3.80;;;2.10;;
65658;SDS011;60181;53.258;6.932;2023-02-28T22:15:54;5.10;;;2.30;;
65658;SDS011;60181;53.258;6.932;2023-02-28T22:19:58;5.10;;;2.30;;
65658;SDS011;60181;53.258;6.932;2023-02-28T22:24:02;5.90;;;2.60;;
65658;SDS011;60181;53.258;6.932;2023-02-28T22:28:06;5.90;;;2.60;;
65658;SDS011;60181;53.258;6.932;2023-02-28T22:32:10;5.90;;;2.60;;
65658;SDS011;60181;53.258;6.932;2023-02-28T22:36:14;4.90;;;2.30;;
65658;SDS011;60181;53.258;6.932;2023-02-28T22:40:18;4.90;;;2.30;;
65658;SDS011;60181;53.258;6.932;2023-02-28T22:44:22;5.40;;;2.50;;
65658;SDS011;60181;53.258;6.932;2023-02-28T22:48:26;5.40;;;2.50;;
65658;SDS011;60181;53.258;6.932;2023-02-28T22:52:30;5.40;;;2.50;;
65658;SDS011;60181;53.258;6.932;2023-02-28T22:56:34;4.60;;;2.50;;
65658;SDS011;60181;53.258;6.932;2023-02-28T23:00:38;4.60;;;2.50;;
65658;SDS011;60181;53.258;6.932;2023-02-28T23:04:41;5.40;;;2.50;;
65658;SDS011;60181;53.258;6.932;2023-02-28T23:08:46;5.40;;;2.50;;
65658;SDS011;60181;53.258;6.932;2023-02-28T23:12:49;5.40;;;2.50;;
65658;SDS011;60181;53.258;6.932;2023-02-28T23:16:53;5.20;;;2.60;;
65658;SDS011;60181;53.258;6.932;2023-02-28T23:20:57;5.20;;;2.60;;
65658;SDS011;60181;53.258;6.932;2023-02-28T23:25:02;5.10;;;2.60;;
65658;SDS011;60181;53.258;6.932;2023-02-28T23:29:06;5.10;;;2.60;;
65658;SDS011;60181;53.258;6.932;2023-02-28T23:33:09;5.10;;;2.60;;
65658;SDS011;60181;53.258;6.932;2023-02-28T23:37:13;5.60;;;2.80;;
65658;SDS011;60181;53.258;6.932;2023-02-28T23:41:18;5.60;;;2.80;;
65658;SDS011;60181;53.258;6.932;2023-02-28T23:45:21;6.20;;;2.90;;
65658;SDS011;60181;53.258;6.932;2023-02-28T23:49:25;6.20;;;2.90;;
65658;SDS011;60181;53.258;6.932;2023-02-28T23:53:30;5.60;;;2.70;;
65658;SDS011;60181;53.258;6.932;2023-02-28T23:57:33;5.60;;;2.70;;
